Time;durP1;ratioP1;P1;durP2;ratioP2;P2;SDS_P1;SDS_P2;PMS_P1;PMS_P2;Temp;Humidity;BMP_temperature;BMP_pressure;BME280_temperature;BME280_humidity;BME280_pressure;Samples;Min_cycle;Max_cycle;Signal;HPM_P1;HPM_P2
2021/06/23 00:02:12;;;;;;;11.88;8.40;;;;;;;11.55;67.81;102129.69;4819781;29;20089;-82
2021/06/23 00:04:43;;;;;;;11.05;8.00;;;;;;;11.06;68.36;102063.50;4820295;29;20054;-82
2021/06/23 00:07:25;;;;;;;15.52;8.13;;;;;;;11.44;69.35;102131.66;4833593;29;20062;-83
2021/06/23 00:09:55;;;;;;;10.18;7.95;;;;;;;10.03;69.24;101918.16;4849155;29;20062;-83
2021/06/23 00:12:29;;;;;;;10.27;7.97;;;;;;;10.01;69.18;101932.97;4836511;29;20050;-82
2021/06/23 00:14:58;;;;;;;12.88;8.63;;;;;;;11.17;69.99;102136.50;4856923;29;20049;-82
2021/06/23 00:17:32;;;;;;;11.38;7.97;;;;;;;10.47;70.52;102035.75;4872445;29;20092;-82
2021/06/23 00:20:03;;;;;;;12.02;8.27;;;;;;;11.07;69.68;102135.78;4871934;29;20061;-82
2021/06/23 00:22:31;;;;;;;12.35;7.85;;;;;;;10.76;70.02;102070.13;4867822;29;20105;-82
2021/06/23 00:25:04;;;;;;;10.63;7.72;;;;;;;10.85;70.33;102094.34;4852575;29;20046;-82
2021/06/23 00:27:32;;;;;;;11.23;7.57;;;;;;;10.75;70.20;102091.91;4852331;29;20092;-82
2021/06/23 00:30:01;;;;;;;11.27;7.95;;;;;;;10.92;70.54;102118.59;4855583;29;20041;-82
2021/06/23 00:32:35;;;;;;;10.32;7.97;;;;;;;11.02;70.93;102145.44;4854886;29;20085;-83
2021/06/23 00:35:09;;;;;;;14.43;9.02;;;;;;;10.66;70.56;102079.88;4855091;29;20144;-82
2021/06/23 00:37:44;;;;;;;12.30;7.57;;;;;;;10.95;71.17;102144.69;4855045;29;20054;-83
2021/06/23 00:40:15;;;;;;;12.45;8.63;;;;;;;10.75;71.17;102124.09;4841362;29;20049;-82
2021/06/23 00:42:47;;;;;;;14.75;8.77;;;;;;;10.66;71.18;102098.16;4849736;29;20064;-82
2021/06/23 00:45:22;;;;;;;11.93;8.10;;;;;;;10.82;71.03;102130.09;4857381;29;20057;-82
2021/06/23 00:47:54;;;;;;;12.85;8.32;;;;;;;10.45;70.39;102058.44;4874010;29;20113;-82
2021/06/23 00:50:35;;;;;;;12.63;8.48;;;;;;;10.96;70.67;102141.19;4875667;29;20078;-83
2021/06/23 00:53:11;;;;;;;15.13;9.27;;;;;;;10.84;71.13;102116.13;4862878;29;20058;-83
2021/06/23 00:55:43;;;;;;;15.25;10.02;;;;;;;10.94;71.67;102126.44;4855038;29;20054;-83
2021/06/23 00:58:16;;;;;;;10.07;8.45;;;;;;;10.71;71.65;102093.72;4855538;29;20093;-83
2021/06/23 01:17:30;;;;;;;12.35;8.32;;;;;;;10.35;72.72;102104.66;4835828;29;20121;-82
2021/06/23 01:20:07;;;;;;;12.37;8.13;;;;;;;10.14;72.84;102071.91;4807557;29;20040;-83
2021/06/23 01:22:41;;;;;;;14.20;8.55;;;;;;;10.51;72.95;102141.88;4855634;29;20046;-83
2021/06/23 01:25:17;;;;;;;11.43;8.60;;;;;;;10.53;72.72;102134.91;4854777;29;20054;-82
2021/06/23 01:27:46;;;;;;;11.77;8.80;;;;;;;10.07;73.14;102055.47;4855354;29;20057;-83
2021/06/23 01:30:20;;;;;;;15.07;9.90;;;;;;;10.49;73.40;102133.19;4856153;29;20070;-84
2021/06/23 01:32:48;;;;;;;12.27;9.27;;;;;;;10.30;73.69;102103.88;4853691;29;20092;-82
2021/06/23 01:35:16;;;;;;;12.15;8.95;;;;;;;10.17;72.80;102076.22;4845357;29;20114;-82
2021/06/23 01:37:43;;;;;;;11.05;8.32;;;;;;;10.35;72.72;102109.88;4844902;29;20054;-83
2021/06/23 01:40:12;;;;;;;13.23;8.75;;;;;;;10.45;72.55;102131.53;4843817;29;20082;-83
2021/06/23 01:42:39;;;;;;;11.88;8.35;;;;;;;10.37;73.00;102136.84;4843065;29;20050;-82
2021/06/23 01:45:08;;;;;;;16.27;9.13;;;;;;;10.30;72.96;102137.81;4828619;29;20093;-83
2021/06/23 01:47:36;;;;;;;13.60;9.40;;;;;;;10.31;73.28;102136.91;4842656;29;20053;-83
2021/06/23 01:50:04;;;;;;;12.52;9.38;;;;;;;10.30;73.46;102132.59;4843634;29;20057;-83
2021/06/23 01:52:32;;;;;;;12.02;9.13;;;;;;;10.13;73.71;102122.38;4827311;29;20061;-83
2021/06/23 01:54:59;;;;;;;10.65;8.70;;;;;;;10.15;74.38;102133.63;4840906;29;20078;-83
2021/06/23 01:57:29;;;;;;;13.90;8.88;;;;;;;10.07;74.59;102136.34;4847200;29;20076;-83
2021/06/23 01:59:56;;;;;;;11.20;7.72;;;;;;;10.07;74.85;102138.09;4844805;29;20094;-83
2021/06/23 02:02:34;;;;;;;12.10;8.85;;;;;;;9.93;74.31;102110.44;4830176;29;20090;-83
2021/06/23 02:05:25;;;;;;;12.40;8.68;;;;;;;10.09;74.43;102132.00;4828406;29;20054;-83
2021/06/23 02:08:10;;;;;;;13.75;8.65;;;;;;;9.98;74.85;102133.84;4827484;29;20061;-83
2021/06/23 02:10:50;;;;;;;12.23;8.52;;;;;;;10.01;74.48;102130.34;4826477;29;20046;-83
2021/06/23 02:13:29;;;;;;;11.27;8.95;;;;;;;9.93;74.99;102136.50;4828319;29;20058;-83
2021/06/23 02:16:09;;;;;;;12.63;9.10;;;;;;;9.70;75.52;102117.69;4837070;29;20148;-82
2021/06/23 02:18:39;;;;;;;14.50;8.45;;;;;;;9.80;75.65;102134.94;4879689;29;20045;-83
2021/06/23 02:21:07;;;;;;;14.45;9.70;;;;;;;9.78;75.28;102139.31;4882700;29;20053;-83
2021/06/23 02:23:42;;;;;;;12.68;9.25;;;;;;;9.56;75.95;102126.53;4882370;29;20054;-82
2021/06/23 02:26:11;;;;;;;13.05;8.90;;;;;;;9.58;75.62;102122.16;4881527;29;20064;-82
2021/06/23 02:28:38;;;;;;;14.48;8.60;;;;;;;9.02;75.13;102027.22;4875667;29;20049;-83
2021/06/23 02:31:09;;;;;;;10.50;8.55;;;;;;;9.46;75.09;102085.81;4864055;29;20100;-83
2021/06/23 02:33:37;;;;;;;11.90;9.10;;;;;;;9.51;74.98;102115.28;4862244;29;20046;-83
2021/06/23 02:36:05;;;;;;;11.75;8.82;;;;;;;9.69;75.17;102152.47;4861757;29;20115;-83
2021/06/23 02:38:32;;;;;;;12.60;8.27;;;;;;;9.55;75.50;102126.56;4861878;29;20095;-83
2021/06/23 02:40:59;;;;;;;11.20;8.38;;;;;;;9.37;75.75;102101.53;4861471;29;20109;-83
2021/06/23 02:43:26;;;;;;;11.90;8.80;;;;;;;9.26;75.43;102089.50;4859047;29;20053;-83
2021/06/23 02:45:53;;;;;;;12.57;8.40;;;;;;;8.80;75.77;102015.28;4861965;29;20061;-84
2021/06/23 02:48:21;;;;;;;10.35;8.77;;;;;;;9.19;75.87;102087.84;4860708;29;20045;-83
2021/06/23 02:50:59;;;;;;;14.25;8.88;;;;;;;9.44;76.42;102147.50;4862205;29;20091;-83
2021/06/23 02:53:29;;;;;;;10.60;8.30;;;;;;;9.39;76.45;102147.56;4862286;29;20045;-83
2021/06/23 02:55:56;;;;;;;12.63;8.90;;;;;;;9.41;76.75;102143.19;4862653;29;20049;-83
2021/06/23 02:58:23;;;;;;;12.63;8.38;;;;;;;9.17;76.33;102105.22;4862437;29;20078;-83
2021/06/23 03:00:51;;;;;;;11.98;8.90;;;;;;;9.33;76.26;102131.97;4862822;29;20053;-83
2021/06/23 03:03:19;;;;;;;11.25;8.02;;;;;;;8.88;76.11;102056.00;4862785;29;20563;-83
2021/06/23 03:05:45;;;;;;;12.85;8.52;;;;;;;9.43;76.30;102151.84;4860490;29;20050;-83
2021/06/23 03:08:13;;;;;;;10.63;8.15;;;;;;;9.32;76.31;102125.03;4861876;29;20058;-83
2021/06/23 03:10:39;;;;;;;11.52;8.85;;;;;;;9.28;76.39;102126.81;4861313;29;20060;-83
2021/06/23 03:13:05;;;;;;;13.30;8.40;;;;;;;8.74;76.52;102043.97;4863014;29;20045;-83
2021/06/23 03:15:31;;;;;;;11.52;8.25;;;;;;;9.47;75.67;102154.44;4861191;29;20496;-83
2021/06/23 03:18:03;;;;;;;12.27;8.32;;;;;;;9.27;76.40;102119.84;4869121;29;20132;-82
2021/06/23 03:20:30;;;;;;;11.48;8.52;;;;;;;9.00;76.43;102084.53;4855003;29;20046;-84
2021/06/23 03:22:56;;;;;;;11.88;8.68;;;;;;;9.42;75.95;102150.13;4861065;29;20174;-82
2021/06/23 03:25:22;;;;;;;13.02;9.02;;;;;;;9.42;76.37;102152.75;4861200;29;20058;-84
2021/06/23 03:27:55;;;;;;;11.15;8.93;;;;;;;8.92;76.52;102074.19;4861244;29;20402;-84
2021/06/23 03:30:23;;;;;;;9.52;7.93;;;;;;;9.36;76.54;102151.94;4861142;29;20049;-84
2021/06/23 03:32:50;;;;;;;14.40;9.75;;;;;;;9.28;76.90;102147.66;4860939;29;20049;-85
2021/06/23 03:35:19;;;;;;;13.25;9.18;;;;;;;9.23;76.59;102138.16;4859830;29;20058;-85
2021/06/23 03:37:47;;;;;;;12.88;8.75;;;;;;;9.34;76.29;102157.16;4861129;29;20054;-83
2021/06/23 03:40:13;;;;;;;14.43;9.02;;;;;;;9.33;76.73;102160.66;4861179;29;20391;-83
2021/06/23 03:42:47;;;;;;;16.33;9.70;;;;;;;9.28;76.66;102154.63;4860168;29;20053;-83
2021/06/23 03:45:16;;;;;;;11.57;8.23;;;;;;;9.34;76.13;102162.38;4861299;29;20483;-83
2021/06/23 03:47:43;;;;;;;13.48;8.93;;;;;;;9.30;76.00;102158.06;4860683;29;20049;-83
2021/06/23 03:50:10;;;;;;;17.85;10.57;;;;;;;9.28;76.22;102159.81;4870814;29;20084;-82
2021/06/23 03:52:37;;;;;;;11.23;8.43;;;;;;;9.07;76.77;102146.13;4882169;29;20069;-83
2021/06/23 03:55:09;;;;;;;12.85;9.23;;;;;;;9.20;76.31;102156.41;4868229;29;20097;-82
2021/06/23 03:57:35;;;;;;;11.45;8.40;;;;;;;9.17;76.37;102162.53;4867818;29;20098;-83
2021/06/23 04:00:04;;;;;;;13.18;9.20;;;;;;;8.38;76.73;102027.72;4862319;29;20045;-83
2021/06/23 04:02:30;;;;;;;13.55;9.35;;;;;;;9.17;76.35;102175.56;4861897;29;20049;-83
2021/06/23 04:04:56;;;;;;;15.48;9.00;;;;;;;9.15;76.33;102164.28;4865805;29;20060;-83
2021/06/23 04:07:22;;;;;;;13.57;8.70;;;;;;;8.97;76.59;102137.50;4866371;29;20464;-83
2021/06/23 04:09:48;;;;;;;13.50;9.48;;;;;;;8.98;76.47;102143.56;4869529;29;20046;-83
2021/06/23 04:12:14;;;;;;;11.50;9.40;;;;;;;8.97;76.55;102142.72;4867617;29;20049;-81
2021/06/23 04:14:40;;;;;;;10.65;8.55;;;;;;;8.97;76.20;102134.03;4887955;29;20038;-82
2021/06/23 04:17:06;;;;;;;11.73;8.77;;;;;;;9.22;75.55;102178.97;4887583;29;20085;-82
2021/06/23 04:19:32;;;;;;;14.00;9.13;;;;;;;9.19;76.18;102168.59;4886818;29;20109;-83
2021/06/23 04:21:58;;;;;;;10.45;8.55;;;;;;;9.23;76.45;102175.50;4867811;29;20050;-84
2021/06/23 04:24:25;;;;;;;17.20;9.30;;;;;;;8.87;76.71;102125.44;4873418;29;20097;-83
2021/06/23 04:26:52;;;;;;;14.60;9.07;;;;;;;8.63;76.52;102101.31;4864887;29;20049;-83
2021/06/23 04:29:19;;;;;;;12.55;8.98;;;;;;;8.97;76.86;102154.88;4864545;29;20132;-83
2021/06/23 04:31:46;;;;;;;12.57;9.30;;;;;;;8.77;76.21;102122.03;4847423;29;20050;-83
2021/06/23 04:34:14;;;;;;;10.70;8.50;;;;;;;8.94;76.59;102129.72;4852222;29;20404;-85
2021/06/23 04:36:41;;;;;;;14.95;8.57;;;;;;;9.06;76.40;102140.94;4863673;29;20505;-83
2021/06/23 04:39:09;;;;;;;10.82;8.65;;;;;;;9.31;76.27;102185.84;4863863;29;20050;-83
2021/06/23 04:41:36;;;;;;;12.48;9.00;;;;;;;9.35;75.80;102190.16;4860091;29;20407;-82
2021/06/23 04:44:04;;;;;;;14.85;9.40;;;;;;;9.26;76.05;102164.19;4845511;29;20085;-82
2021/06/23 04:46:33;;;;;;;13.13;8.63;;;;;;;8.83;75.83;102095.09;4845690;29;20058;-83
2021/06/23 04:49:02;;;;;;;14.73;10.07;;;;;;;9.45;75.73;102183.97;4846773;29;20054;-83
2021/06/23 04:51:30;;;;;;;11.70;9.20;;;;;;;9.33;75.49;102157.19;4847879;29;20058;-83
2021/06/23 04:53:57;;;;;;;15.63;9.20;;;;;;;9.28;75.80;102147.66;4847407;29;20050;-83
2021/06/23 04:56:25;;;;;;;12.40;9.32;;;;;;;9.67;75.34;102190.75;4846911;29;20054;-83
2021/06/23 04:58:52;;;;;;;11.68;9.30;;;;;;;9.25;75.10;102132.06;4880920;29;20053;-85
2021/06/23 05:01:21;;;;;;;12.20;9.30;;;;;;;10.24;73.14;102182.22;4885753;29;20105;-83
2021/06/23 05:03:48;;;;;;;12.80;9.50;;;;;;;10.94;70.37;102183.91;4882396;29;20578;-83
2021/06/23 05:06:16;;;;;;;12.50;8.98;;;;;;;11.33;68.76;102184.13;4877041;29;20129;-85
2021/06/23 05:08:44;;;;;;;12.05;8.85;;;;;;;11.57;67.98;102182.84;4844837;29;20049;-84
2021/06/23 05:11:11;;;;;;;12.70;8.80;;;;;;;11.54;67.01;102133.19;4846747;29;20066;-84
2021/06/23 05:13:39;;;;;;;12.00;9.40;;;;;;;12.03;66.70;102177.63;4847488;29;20054;-84
2021/06/23 05:16:07;;;;;;;12.32;8.93;;;;;;;12.23;65.87;102179.81;4847306;29;20467;-84
2021/06/23 05:18:35;;;;;;;12.50;9.45;;;;;;;12.35;65.03;102184.78;4848459;29;20082;-84
2021/06/23 05:21:04;;;;;;;11.95;9.35;;;;;;;12.47;64.21;102181.91;4848348;29;20053;-84
2021/06/23 05:23:31;;;;;;;10.60;8.55;;;;;;;11.65;65.49;102115.53;4847739;29;20081;-84
2021/06/23 05:25:58;;;;;;;13.52;9.38;;;;;;;11.58;67.33;102194.16;4849349;29;20054;-84
2021/06/23 05:28:26;;;;;;;11.18;9.13;;;;;;;11.10;68.22;102147.94;4849987;29;20054;-84
2021/06/23 05:30:53;;;;;;;10.73;9.02;;;;;;;10.40;69.02;102068.09;4850126;29;20053;-83
2021/06/23 05:33:21;;;;;;;12.27;9.30;;;;;;;10.81;69.22;102142.28;4860452;29;20122;-84
2021/06/23 05:35:48;;;;;;;11.25;9.82;;;;;;;10.51;69.95;102107.94;4869489;29;20053;-83
2021/06/23 05:38:16;;;;;;;12.13;8.98;;;;;;;10.64;69.79;102120.81;4870433;29;20057;-84
2021/06/23 05:40:43;;;;;;;12.15;10.27;;;;;;;10.93;69.47;102179.56;4867296;29;20061;-84
2021/06/23 05:43:12;;;;;;;18.70;10.13;;;;;;;10.94;69.92;102204.81;4865993;29;20131;-84
2021/06/23 05:45:39;;;;;;;13.40;9.95;;;;;;;10.93;70.06;102205.69;4866426;29;20124;-85
2021/06/23 05:48:08;;;;;;;15.43;9.88;;;;;;;10.97;69.92;102189.06;4866943;29;20087;-84
2021/06/23 05:50:35;;;;;;;12.13;9.98;;;;;;;10.69;69.88;102132.03;4865105;29;20049;-84
2021/06/23 05:53:03;;;;;;;11.88;9.55;;;;;;;11.14;69.55;102191.41;4863748;29;20595;-83
2021/06/23 05:55:30;;;;;;;12.95;10.18;;;;;;;11.08;69.36;102154.94;4863826;29;20049;-84
2021/06/23 05:57:57;;;;;;;16.42;10.57;;;;;;;10.98;69.03;102143.78;4874649;29;20052;-83
2021/06/23 06:00:26;;;;;;;14.15;10.07;;;;;;;11.45;68.97;102204.84;4866760;29;20049;-84
2021/06/23 06:02:53;;;;;;;14.73;10.75;;;;;;;11.06;68.77;102123.59;4867107;29;20053;-84
2021/06/23 06:05:20;;;;;;;12.48;10.32;;;;;;;11.11;68.09;102110.44;4864510;29;20053;-82
2021/06/23 06:07:50;;;;;;;16.58;10.30;;;;;;;11.26;67.25;102097.09;4865172;29;20093;-83
2021/06/23 06:10:17;;;;;;;13.93;9.98;;;;;;;12.11;66.75;102197.50;4864209;29;20057;-83
2021/06/23 06:12:45;;;;;;;13.05;10.77;;;;;;;12.24;66.05;102190.28;4850976;29;20054;-83
2021/06/23 06:15:13;;;;;;;12.40;10.88;;;;;;;12.09;65.98;102165.25;4846554;29;20054;-82
2021/06/23 06:17:41;;;;;;;13.93;12.25;;;;;;;11.89;65.63;102133.38;4848011;29;20058;-82
2021/06/23 06:20:09;;;;;;;13.82;11.73;;;;;;;12.34;65.63;102204.03;4849494;29;20050;-84
2021/06/23 06:22:37;;;;;;;15.23;13.40;;;;;;;12.06;65.27;102148.75;4850438;29;20236;-83
2021/06/23 06:25:07;;;;;;;18.73;14.68;;;;;;;12.52;65.03;102204.53;4849987;29;20042;-83
2021/06/23 06:27:35;;;;;;;17.70;14.23;;;;;;;12.64;64.98;102209.47;4853822;29;20125;-82
2021/06/23 06:30:03;;;;;;;17.10;13.73;;;;;;;12.78;64.61;102212.66;4870091;29;20054;-83
2021/06/23 06:32:34;;;;;;;21.02;14.50;;;;;;;12.45;64.08;102149.66;4884094;29;20058;-83
2021/06/23 06:35:05;;;;;;;16.30;14.07;;;;;;;12.46;64.35;102151.38;4870343;29;20048;-85
2021/06/23 06:37:34;;;;;;;18.73;13.48;;;;;;;12.86;64.60;102177.53;4880104;29;20069;-85
2021/06/23 06:40:02;;;;;;;15.95;13.82;;;;;;;12.88;63.86;102162.66;4848162;29;20045;-83
2021/06/23 06:42:29;;;;;;;17.70;12.85;;;;;;;12.99;63.57;102165.84;4862976;29;20053;-83
2021/06/23 06:44:58;;;;;;;16.48;11.65;;;;;;;12.39;63.04;102060.75;4863756;29;20752;-85
2021/06/23 06:47:25;;;;;;;17.75;13.48;;;;;;;13.27;63.84;102207.97;4863219;29;20160;-85
2021/06/23 06:49:57;;;;;;;18.95;13.90;;;;;;;12.80;63.88;102134.00;4859944;29;20073;-84
2021/06/23 06:52:24;;;;;;;18.48;13.48;;;;;;;13.39;63.64;102214.72;4855140;24;20100;-84
2021/06/23 06:54:51;;;;;;;23.85;14.45;;;;;;;13.50;63.37;102211.81;4830167;29;20053;-85
2021/06/23 06:57:19;;;;;;;19.73;14.60;;;;;;;13.52;63.32;102207.38;4832575;29;20057;-85
2021/06/23 06:59:47;;;;;;;19.02;14.40;;;;;;;13.61;63.49;102212.38;4850393;29;20054;-84
2021/06/23 07:02:23;;;;;;;21.45;13.60;;;;;;;13.65;63.61;102194.78;4848718;29;20065;-85
2021/06/23 07:04:50;;;;;;;;;;;;;;;13.64;63.72;102213.22;4848348;29;20046;-84
2021/06/23 07:07:18;;;;;;;18.25;14.63;;;;;;;13.78;63.70;102224.19;4845150;29;19924;-85
2021/06/23 07:09:46;;;;;;;17.45;14.20;;;;;;;13.51;63.20;102162.81;4845068;29;20195;-84
2021/06/23 07:12:14;;;;;;;15.93;13.80;;;;;;;13.66;63.26;102178.16;4828781;29;20061;-83
2021/06/23 07:14:41;;;;;;;19.88;13.07;;;;;;;13.86;62.42;102185.44;4842172;29;20053;-84
2021/06/23 07:17:09;;;;;;;15.75;14.05;;;;;;;14.01;62.71;102199.94;4843829;29;20078;-84
2021/06/23 07:19:36;;;;;;;20.77;15.13;;;;;;;14.08;62.42;102193.56;4844367;29;20136;-82
2021/06/23 07:22:04;;;;;;;17.17;13.93;;;;;;;13.13;62.53;102040.53;4844058;29;20058;-82
2021/06/23 07:24:32;;;;;;;14.27;12.75;;;;;;;14.23;62.38;102200.16;4844400;29;20417;-83
2021/06/23 07:26:59;;;;;;;20.00;14.18;;;;;;;13.85;61.89;102096.25;4843541;29;20133;-83
2021/06/23 07:29:28;;;;;;;15.02;13.43;;;;;;;14.49;61.25;102166.09;4827885;29;20057;-83
2021/06/23 07:32:00;;;;;;;18.23;13.27;;;;;;;14.71;61.11;102193.47;4830909;29;20197;-89
2021/06/23 07:37:03;;;;;;;15.10;13.23;;;;;;;14.70;60.92;102165.47;4851927;29;20133;-85
2021/06/23 07:39:30;;;;;;;13.88;12.40;;;;;;;14.82;60.30;102166.84;4837299;29;20065;-83
2021/06/23 07:41:57;;;;;;;13.77;12.38;;;;;;;14.93;58.87;102190.16;4856737;29;20057;-84
2021/06/23 07:44:29;;;;;;;14.30;12.82;;;;;;;14.55;59.35;102135.25;4841517;29;20054;-84
2021/06/23 07:46:57;;;;;;;14.15;12.30;;;;;;;14.84;58.79;102179.94;4866866;29;20057;-82
2021/06/23 07:49:27;;;;;;;14.73;13.18;;;;;;;14.54;59.10;102111.66;4883223;29;20053;-84
2021/06/23 07:54:55;;;;;;;12.85;10.68;;;;;;;15.05;57.34;102192.38;4884206;29;20045;-81
2021/06/23 08:08:10;;;;;;;14.52;12.13;;;;;;;15.31;56.59;102172.22;4882738;29;19912;-83
2021/06/23 08:11:17;;;;;;;14.48;12.07;;;;;;;15.51;56.04;102165.41;4848528;29;20015;-89
2021/06/23 08:13:44;;;;;;;12.02;9.68;;;;;;;15.61;53.36;102153.66;4856930;29;20097;-88
2021/06/23 08:16:11;;;;;;;11.82;10.27;;;;;;;15.81;52.76;102154.69;4852667;29;20050;-89
2021/06/23 08:18:37;;;;;;;11.35;10.15;;;;;;;15.64;52.65;102094.78;4869098;29;20058;-90
2021/06/23 08:21:03;;;;;;;14.20;10.70;;;;;;;16.22;53.19;102148.81;4858679;29;20526;-89
2021/06/23 08:23:34;;;;;;;12.07;10.57;;;;;;;15.99;52.35;102121.56;4835866;29;20050;-89
2021/06/23 08:26:01;;;;;;;12.55;10.52;;;;;;;16.42;52.09;102185.78;4857203;29;20034;-90
2021/06/23 08:28:27;;;;;;;12.27;9.80;;;;;;;16.27;52.26;102162.66;4865964;29;20057;-91
2021/06/23 08:31:01;;;;;;;12.15;9.93;;;;;;;16.46;50.89;102181.25;4870918;29;20053;-89
2021/06/23 08:33:27;;;;;;;9.80;8.75;;;;;;;16.37;47.51;102165.78;4866021;29;20054;-82
2021/06/23 08:35:54;;;;;;;13.90;9.52;;;;;;;15.69;50.58;102063.88;4868345;29;20088;-87
2021/06/23 08:38:25;;;;;;;11.15;10.05;;;;;;;16.54;50.39;102168.63;4861772;29;20056;-78
2021/06/23 08:40:58;;;;;;;9.43;8.52;;;;;;;16.32;49.57;102123.81;4882516;29;20109;-82
2021/06/23 08:43:24;;;;;;;10.27;9.25;;;;;;;16.79;48.55;102186.09;4880470;29;20050;-82
2021/06/23 08:45:51;;;;;;;11.82;10.10;;;;;;;16.41;49.94;102144.53;4869644;29;20042;-82
2021/06/23 08:48:18;;;;;;;10.32;9.15;;;;;;;16.86;49.13;102177.00;4850559;29;20050;-79
2021/06/23 08:50:45;;;;;;;11.98;10.15;;;;;;;16.88;49.14;102182.22;4878299;29;20045;-79
2021/06/23 08:53:13;;;;;;;12.85;10.23;;;;;;;16.93;49.41;102143.34;4888548;29;20061;-79
2021/06/23 08:55:40;;;;;;;10.48;9.45;;;;;;;17.18;48.81;102174.84;4887695;29;20046;-78
2021/06/23 08:58:06;;;;;;;9.80;8.55;;;;;;;17.02;48.27;102136.84;4869367;29;20034;-80
2021/06/23 09:00:33;;;;;;;9.27;8.27;;;;;;;17.33;45.86;102175.09;4883193;29;20070;-80
2021/06/23 09:03:06;;;;;;;9.00;8.07;;;;;;;17.38;45.88;102173.13;4869454;29;20132;-79
2021/06/23 09:05:49;;;;;;;;;;;;;;;17.12;48.11;102162.78;4868145;29;20554;-82
2021/06/23 09:08:35;;;;;;;9.77;8.77;;;;;;;17.21;47.62;102164.16;4860183;29;19993;-82
2021/06/23 09:11:15;;;;;;;10.48;9.48;;;;;;;17.65;47.79;102167.53;4857429;29;20049;-81
2021/06/23 09:13:42;;;;;;;9.70;8.48;;;;;;;17.65;46.29;102156.97;4855546;29;20049;-83
2021/06/23 09:16:09;;;;;;;11.02;9.23;;;;;;;17.58;45.41;102145.84;4856837;29;20394;-81
2021/06/23 09:18:40;;;;;;;10.88;8.60;;;;;;;17.71;44.88;102159.34;4864114;29;20057;-80
2021/06/23 09:21:14;;;;;;;8.13;7.30;;;;;;;17.58;44.16;102130.00;4860169;29;20086;-80
2021/06/23 09:23:46;;;;;;;8.60;7.70;;;;;;;17.84;43.43;102147.31;4845713;29;20049;-81
2021/06/23 09:26:23;;;;;;;9.13;8.18;;;;;;;17.87;45.03;102120.75;4864603;29;20060;-81
2021/06/23 09:29:16;;;;;;;9.70;8.68;;;;;;;18.03;45.25;102131.50;4864795;29;20049;-80
2021/06/23 09:32:03;;;;;;;9.70;8.00;;;;;;;18.07;43.26;102140.97;4864523;29;20046;-80
2021/06/23 09:34:46;;;;;;;9.63;8.07;;;;;;;18.10;42.99;102139.97;4848697;29;20054;-80
2021/06/23 09:37:33;;;;;;;9.90;8.43;;;;;;;18.24;43.18;102131.41;4849174;29;20065;-79
2021/06/23 09:40:16;;;;;;;9.63;8.73;;;;;;;18.51;41.95;102133.66;4851061;29;20056;-79
2021/06/23 09:43:02;;;;;;;10.27;8.57;;;;;;;18.39;42.00;102111.31;4849474;29;20050;-79
2021/06/23 09:45:31;;;;;;;;;;;;;;;18.38;42.72;102134.25;4849340;29;20054;-78
2021/06/23 09:48:03;;;;;;;9.18;8.27;;;;;;;18.43;42.97;102139.31;4850257;29;19932;-85
2021/06/23 09:50:31;;;;;;;9.90;8.38;;;;;;;18.42;43.28;102111.16;4870907;29;20140;-82
2021/06/23 09:53:09;;;;;;;10.82;8.20;;;;;;;18.64;41.91;102134.75;4861914;29;20380;-80
2021/06/23 09:55:41;;;;;;;9.13;7.65;;;;;;;18.72;42.53;102127.31;4861362;29;20484;-84
2021/06/23 09:58:09;;;;;;;9.23;8.27;;;;;;;18.77;42.05;102131.50;4854589;29;20499;-80
2021/06/23 10:01:13;;;;;;;9.25;7.53;;;;;;;18.97;41.11;102136.69;4855557;29;20053;-82
2021/06/23 10:03:59;;;;;;;10.48;7.82;;;;;;;18.96;40.19;102132.31;4814170;29;20047;-80
2021/06/23 10:06:42;;;;;;;8.60;7.47;;;;;;;18.80;38.57;102128.72;4816313;29;20136;-83
2021/06/23 10:09:27;;;;;;;7.60;6.77;;;;;;;18.84;38.65;102133.75;4839863;29;20053;-82
2021/06/23 10:11:56;;;;;;;9.63;7.72;;;;;;;18.98;38.96;102122.53;4863943;29;20248;-81
2021/06/23 10:14:25;;;;;;;8.75;7.30;;;;;;;18.94;39.09;102102.44;4851772;29;20046;-81
2021/06/23 10:16:53;;;;;;;9.48;7.40;;;;;;;19.09;39.26;102119.31;4854636;29;20057;-80
2021/06/23 10:19:20;;;;;;;9.07;6.80;;;;;;;19.13;38.84;102107.63;4852172;29;20079;-81
2021/06/23 10:21:47;;;;;;;7.88;7.07;;;;;;;19.36;38.39;102103.78;4847794;29;20073;-81
2021/06/23 10:24:15;;;;;;;7.80;7.00;;;;;;;19.58;37.70;102112.34;4848803;29;20054;-81
2021/06/23 10:26:48;;;;;;;8.45;6.63;;;;;;;19.52;36.94;102109.09;4858050;29;20045;-81
2021/06/23 10:29:28;;;;;;;6.95;5.93;;;;;;;19.56;36.41;102062.13;4860977;29;20050;-82
2021/06/23 10:31:56;;;;;;;7.30;6.45;;;;;;;19.82;35.94;102099.56;4858182;29;20480;-81
2021/06/23 10:34:26;;;;;;;7.55;6.78;;;;;;;19.20;36.11;102026.13;4861313;29;20053;-81
2021/06/23 10:36:55;;;;;;;6.03;5.43;;;;;;;19.67;34.27;102103.94;4865948;29;20090;-84
2021/06/23 10:39:28;;;;;;;9.15;6.85;;;;;;;19.47;36.14;102116.44;4864035;29;20073;-84
2021/06/23 10:42:02;;;;;;;7.03;6.33;;;;;;;19.27;36.29;102106.91;4861938;29;20052;-83
2021/06/23 10:44:33;;;;;;;7.80;5.82;;;;;;;19.54;35.63;102097.59;4858919;29;20129;-85
2021/06/23 10:47:01;;;;;;;7.95;5.65;;;;;;;19.65;34.38;102069.59;4859521;29;20045;-82
2021/06/23 10:49:42;;;;;;;6.53;5.70;;;;;;;19.99;34.36;102110.16;4854959;29;20046;-83
2021/06/23 10:52:21;;;;;;;7.22;5.35;;;;;;;20.00;33.92;102109.19;4857965;29;20068;-83
2021/06/23 10:54:58;;;;;;;6.45;5.78;;;;;;;19.94;34.15;102100.72;4854140;29;20392;-83
2021/06/23 10:57:30;;;;;;;7.85;6.13;;;;;;;20.04;34.25;102112.50;4857651;29;20049;-84
2021/06/23 10:59:58;;;;;;;7.60;6.60;;;;;;;20.08;33.61;102081.38;4854640;29;20084;-82
2021/06/23 11:02:34;;;;;;;10.25;6.60;;;;;;;20.37;34.42;102087.69;4872002;29;20065;-84
2021/06/23 11:05:04;;;;;;;9.02;7.78;;;;;;;20.70;35.43;102110.56;4871424;29;20049;-82
2021/06/23 11:07:36;;;;;;;11.43;9.32;;;;;;;20.42;36.26;102111.28;4867864;29;20551;-88
2021/06/23 11:10:15;;;;;;;9.45;8.00;;;;;;;20.45;37.02;102113.78;4866957;29;20029;-80
2021/06/23 11:12:51;;;;;;;9.25;8.30;;;;;;;20.42;36.02;102096.25;4879313;29;20112;-81
2021/06/23 11:15:38;;;;;;;8.75;7.43;;;;;;;20.73;36.44;102093.63;4866941;29;20382;-79
2021/06/23 11:18:34;;;;;;;8.13;7.32;;;;;;;20.77;36.23;102095.16;4862565;29;20124;-80
2021/06/23 11:21:19;;;;;;;10.02;7.45;;;;;;;21.10;36.25;102089.63;4865317;29;20048;-79
2021/06/23 11:24:02;;;;;;;10.07;7.15;;;;;;;20.95;35.74;102095.88;4880037;29;20125;-84
2021/06/23 11:26:33;;;;;;;;;;;;;;;20.30;36.52;102095.16;4885146;29;20041;-82
2021/06/23 11:29:22;;;;;;;8.32;7.50;;;;;;;20.31;36.22;102101.28;4870963;29;19924;-82
2021/06/23 11:32:06;;;;;;;7.63;6.25;;;;;;;20.71;34.77;102095.50;4870240;29;20045;-81
2021/06/23 11:35:11;;;;;;;6.35;5.75;;;;;;;21.08;33.10;102094.19;4878631;29;20057;-84
2021/06/23 11:38:20;;;;;;;6.82;4.90;;;;;;;21.49;30.12;102081.09;4873221;29;20090;-82
2021/06/23 11:40:47;;;;;;;7.00;6.18;;;;;;;21.47;32.76;102090.97;4863830;29;20479;-83
2021/06/23 11:43:14;;;;;;;10.00;6.97;;;;;;;21.10;33.12;102094.94;4871591;29;20427;-83
2021/06/23 11:45:40;;;;;;;8.05;6.32;;;;;;;20.65;32.39;102072.81;4874158;29;20068;-83
2021/06/23 11:48:07;;;;;;;8.23;6.72;;;;;;;20.81;33.44;102088.72;4873309;29;20113;-79
2021/06/23 11:50:33;;;;;;;8.18;6.57;;;;;;;20.93;32.81;102097.75;4859919;29;20038;-78
2021/06/23 11:52:59;;;;;;;6.93;6.28;;;;;;;20.92;32.64;102099.56;4850152;29;20152;-80
2021/06/23 11:55:26;;;;;;;8.70;6.38;;;;;;;21.03;32.46;102095.38;4863277;29;20133;-79
2021/06/23 11:57:57;;;;;;;7.13;6.40;;;;;;;20.58;32.62;102098.88;4854459;29;20075;-80
2021/06/23 12:00:24;;;;;;;11.13;7.00;;;;;;;20.68;32.84;102063.81;4874924;29;20470;-81
2021/06/23 12:02:51;;;;;;;6.65;4.70;;;;;;;21.08;29.99;102096.81;4882382;29;20048;-79
2021/06/23 12:05:18;;;;;;;6.15;5.53;;;;;;;21.17;31.10;102082.13;4880925;29;20525;-79
2021/06/23 12:07:47;;;;;;;5.47;4.50;;;;;;;21.27;27.68;102096.53;4875733;29;20514;-80
2021/06/23 12:10:20;;;;;;;7.50;5.45;;;;;;;21.22;29.33;102101.28;4875381;29;20036;-79